Time;durP1;ratioP1;P1;durP2;ratioP2;P2;SDS_P1;SDS_P2;PMS_P1;PMS_P2;Temp;Humidity;BMP_temperature;BMP_pressure;BME280_temperature;BME280_humidity;BME280_pressure;Samples;Min_cycle;Max_cycle;Signal;HPM_P1;HPM_P2
2022/07/07 00:00:41;;;;;;;;;1.00;1.00;;;;;20.11;51.14;102233.09;6305500;22;45348;-79
2022/07/07 00:03:06;;;;;;;;;0.00;0.00;;;;;20.10;51.50;102232.22;6305980;22;45358;-79
2022/07/07 00:05:31;;;;;;;;;1.00;1.00;;;;;20.09;52.23;102219.06;6305772;22;45370;-79
2022/07/07 00:07:57;;;;;;;;;0.50;0.50;;;;;20.06;52.20;102228.03;6277765;22;49247;-79
2022/07/07 00:10:22;;;;;;;;;1.00;1.00;;;;;20.02;52.36;102226.44;6305492;22;45311;-79
2022/07/07 00:12:48;;;;;;;;;1.75;1.25;;;;;19.95;51.70;102225.00;6277355;22;45283;-79
2022/07/07 00:15:14;;;;;;;;;1.00;1.00;;;;;19.91;52.44;102219.00;6305842;22;45428;-79
2022/07/07 00:17:39;;;;;;;;;1.25;1.00;;;;;19.91;52.33;102219.00;6305038;22;46600;-79
2022/07/07 00:20:06;;;;;;;;;1.00;1.00;;;;;19.92;52.41;102228.63;6304213;22;73092;-79
2022/07/07 00:22:31;;;;;;;;;2.00;2.00;;;;;19.86;52.74;102220.97;6305664;22;45317;-79
2022/07/07 00:24:56;;;;;;;;;1.25;1.00;;;;;19.80;53.82;102223.03;6304886;22;55096;-79
2022/07/07 00:27:22;;;;;;;;;3.00;1.75;;;;;19.77;52.94;102226.66;6304544;22;46140;-79
2022/07/07 00:29:48;;;;;;;;;3.00;1.25;;;;;19.74;53.11;102221.50;6304468;22;50293;-79
2022/07/07 00:32:13;;;;;;;;;1.00;1.00;;;;;19.76;53.21;102234.66;6305282;22;45339;-79
2022/07/07 00:34:39;;;;;;;;;1.00;1.00;;;;;19.75;52.76;102217.97;6305567;22;45187;-79
2022/07/07 00:37:04;;;;;;;;;1.75;1.75;;;;;19.72;53.50;102218.03;6304076;22;72129;-79
2022/07/07 00:39:29;;;;;;;;;2.00;2.00;;;;;19.72;53.16;102205.75;6304873;22;45459;-78
2022/07/07 00:41:55;;;;;;;;;2.00;2.00;;;;;19.68;52.60;102197.97;6304229;22;64021;-79
2022/07/07 00:44:22;;;;;;;;;2.00;2.00;;;;;19.68;53.29;102205.91;6305089;22;45280;-79
2022/07/07 00:46:50;;;;;;;;;1.75;1.00;;;;;19.66;53.62;102197.19;6305237;22;46155;-78
2022/07/07 00:49:17;;;;;;;;;1.25;1.25;;;;;19.66;53.24;102200.69;6305563;22;45249;-79
2022/07/07 00:51:43;;;;;;;;;1.75;1.00;;;;;19.63;53.69;102194.69;6305533;22;45236;-79
2022/07/07 00:54:10;;;;;;;;;2.00;2.00;;;;;19.62;53.56;102198.25;6304250;22;58848;-79
2022/07/07 00:56:35;;;;;;;;;4.00;2.00;;;;;19.58;53.70;102186.13;6304382;22;45401;-79
2022/07/07 00:59:02;;;;;;;;;1.75;1.75;;;;;19.58;53.92;102180.84;6304737;22;45289;-78
2022/07/07 01:01:29;;;;;;;;;3.00;2.00;;;;;19.58;54.00;102181.69;6277944;22;45376;-79
2022/07/07 01:03:54;;;;;;;;;1.00;1.00;;;;;19.57;53.99;102173.84;6305638;22;45166;-79
2022/07/07 01:06:20;;;;;;;;;2.25;2.00;;;;;19.52;54.16;102176.69;6303960;22;73309;-79
2022/07/07 01:08:45;;;;;;;;;2.25;2.25;;;;;19.50;53.78;102182.03;6277756;22;45231;-79
2022/07/07 01:11:10;;;;;;;;;1.00;1.00;;;;;19.51;54.09;102173.16;6303821;22;68318;-78
2022/07/07 01:13:38;;;;;;;;;2.00;2.00;;;;;19.44;54.42;102166.44;6304131;22;66295;-79
2022/07/07 01:16:04;;;;;;;;;2.00;1.25;;;;;19.44;54.21;102171.72;6305001;22;46369;-79
2022/07/07 01:18:29;;;;;;;;;4.00;2.00;;;;;19.44;54.66;102168.22;6305263;22;45277;-79
2022/07/07 01:20:55;;;;;;;;;2.00;2.00;;;;;19.38;54.55;102168.50;6304818;22;54386;-79
2022/07/07 01:23:21;;;;;;;;;2.00;2.00;;;;;19.39;54.53;102171.09;6304357;22;60760;-79
2022/07/07 01:25:46;;;;;;;;;2.00;2.00;;;;;19.43;54.77;102177.94;6304180;22;45458;-79
2022/07/07 01:28:11;;;;;;;;;2.00;2.00;;;;;19.41;54.54;102181.53;6303923;22;73806;-79
2022/07/07 01:30:37;;;;;;;;;1.25;1.00;;;;;19.41;54.52;102177.16;6305098;22;45254;-79
2022/07/07 01:33:02;;;;;;;;;2.00;2.00;;;;;19.43;54.33;102167.38;6304406;22;59030;-78
2022/07/07 01:35:27;;;;;;;;;1.00;1.00;;;;;19.43;55.43;102171.81;6305037;22;45950;-79
2022/07/07 01:37:53;;;;;;;;;1.00;1.00;;;;;19.39;54.82;102172.84;6303369;22;73718;-79
2022/07/07 01:40:18;;;;;;;;;2.00;2.00;;;;;19.32;54.52;102170.47;6303724;22;45381;-79
2022/07/07 01:42:43;;;;;;;;;1.00;1.00;;;;;19.29;55.41;102169.75;6305180;22;45328;-79
2022/07/07 01:45:09;;;;;;;;;1.00;1.00;;;;;19.23;55.49;102165.59;6303556;22;73348;-79
2022/07/07 01:47:34;;;;;;;;;2.00;2.00;;;;;19.17;55.24;102165.84;6305037;22;45324;-78
2022/07/07 01:50:00;;;;;;;;;2.75;1.00;;;;;19.12;55.92;102165.19;6276389;22;69431;-79
2022/07/07 01:52:25;;;;;;;;;2.00;2.00;;;;;19.08;55.68;102161.81;6304924;22;45494;-79
2022/07/07 01:54:51;;;;;;;;;3.00;3.00;;;;;19.06;55.96;102160.19;6303304;22;74426;-79
2022/07/07 01:57:16;;;;;;;;;2.25;1.75;;;;;19.04;56.04;102157.59;6304494;22;45277;-79
2022/07/07 01:59:42;;;;;;;;;2.00;2.00;;;;;19.02;55.73;102151.53;6304651;22;45278;-79
2022/07/07 02:02:07;;;;;;;;;2.50;2.00;;;;;19.02;56.07;102150.66;6305205;22;45250;-79
2022/07/07 02:04:32;;;;;;;;;3.75;2.00;;;;;18.99;56.08;102154.28;6303573;22;75759;-79
2022/07/07 02:06:58;;;;;;;;;5.00;2.00;;;;;18.98;56.45;102143.78;6305166;22;45483;-79
2022/07/07 02:09:23;;;;;;;;;3.75;2.00;;;;;18.97;55.99;102140.31;6304712;22;45379;-78
2022/07/07 02:11:49;;;;;;;;;2.00;2.00;;;;;18.97;56.80;102140.31;6276022;22;70461;-79
2022/07/07 02:14:14;;;;;;;;;2.25;2.25;;;;;18.97;56.27;102136.81;6277408;22;45940;-79
2022/07/07 02:16:39;;;;;;;;;4.00;3.00;;;;;18.98;56.40;102133.25;6304827;22;45275;-79
2022/07/07 02:19:06;;;;;;;;;4.00;2.25;;;;;18.93;56.22;102141.34;6305302;22;45329;-79
2022/07/07 02:21:31;;;;;;;;;2.75;2.75;;;;;18.91;56.52;102146.69;6305177;22;45347;-79
2022/07/07 02:23:58;;;;;;;;;3.75;3.75;;;;;18.84;56.97;102137.31;6304376;22;45297;-79
2022/07/07 02:26:23;;;;;;;;;2.75;2.00;;;;;18.85;56.83;102144.31;6304365;22;45350;-79
2022/07/07 02:28:49;;;;;;;;;2.00;2.00;;;;;18.79;56.63;102133.13;6304577;22;45151;-79
2022/07/07 02:31:15;;;;;;;;;3.50;2.50;;;;;18.75;56.73;102143.78;6304106;22;64157;-79
2022/07/07 02:33:40;;;;;;;;;3.00;2.00;;;;;18.70;57.01;102136.97;6276616;22;45290;-79
2022/07/07 02:36:06;;;;;;;;;3.25;2.00;;;;;18.66;57.08;102133.63;6303499;22;72433;-79
2022/07/07 02:38:32;;;;;;;;;2.00;2.00;;;;;18.63;57.82;102146.94;6304699;22;45241;-79
2022/07/07 02:40:57;;;;;;;;;3.00;1.75;;;;;18.54;57.34;102142.88;6304792;22;45419;-78
2022/07/07 02:43:23;;;;;;;;;2.00;2.00;;;;;18.51;57.35;102144.78;6302974;22;73086;-78
2022/07/07 02:45:50;;;;;;;;;3.00;2.00;;;;;18.39;58.27;102138.25;6304828;22;45211;-79
2022/07/07 02:48:19;;;;;;;;;2.50;2.00;;;;;18.46;57.66;102145.00;6277335;22;45268;-79
2022/07/07 02:50:46;;;;;;;;;2.50;2.00;;;;;18.46;57.54;102144.09;6304893;22;45328;-79
2022/07/07 02:53:12;;;;;;;;;2.00;2.00;;;;;18.44;57.80;102138.88;6303427;22;47626;-79
2022/07/07 02:55:38;;;;;;;;;2.00;2.00;;;;;18.45;58.37;102139.78;6303406;22;45266;-78
2022/07/07 02:58:05;;;;;;;;;5.00;3.00;;;;;18.43;57.32;102138.97;6304026;22;45352;-80
2022/07/07 03:00:34;;;;;;;;;3.00;2.00;;;;;18.44;58.38;102144.16;6304120;22;45316;-79
2022/07/07 03:03:00;;;;;;;;;3.00;2.00;;;;;18.42;58.03;102145.16;6303821;22;46204;-78
2022/07/07 03:05:26;;;;;;;;;2.00;2.00;;;;;18.39;58.86;102138.25;6276830;22;45318;-79
2022/07/07 03:07:51;;;;;;;;;3.00;3.00;;;;;18.40;58.60;102139.94;6303884;22;45148;-79
2022/07/07 03:10:16;;;;;;;;;3.00;2.00;;;;;18.35;58.42;102134.00;6303125;22;63780;-78
2022/07/07 03:12:42;;;;;;;;;3.00;3.00;;;;;18.37;58.38;102134.81;6303889;22;45344;-78
2022/07/07 03:15:08;;;;;;;;;3.75;3.50;;;;;18.36;58.30;102127.81;6302940;22;66942;-78
2022/07/07 03:17:40;;;;;;;;;2.00;1.00;;;;;18.34;58.82;102125.22;6303943;22;45282;-78
2022/07/07 03:20:06;;;;;;;;;2.25;2.00;;;;;18.33;58.50;102134.06;6304167;22;45452;-79
2022/07/07 03:22:31;;;;;;;;;3.50;2.00;;;;;18.34;58.52;102138.41;6303298;22;45301;-79
2022/07/07 03:24:56;;;;;;;;;2.00;2.00;;;;;18.37;58.43;102134.81;6302543;22;72782;-79
2022/07/07 03:27:22;;;;;;;;;2.75;2.00;;;;;18.35;58.32;102134.00;6303267;22;69233;-79
2022/07/07 03:29:47;;;;;;;;;3.00;3.00;;;;;18.29;58.46;102128.97;6304396;22;46420;-78
2022/07/07 03:32:12;;;;;;;;;3.75;3.00;;;;;18.28;58.42;102133.38;6303063;22;73462;-79
2022/07/07 03:34:38;;;;;;;;;3.25;3.00;;;;;18.23;59.17;102132.69;6303242;22;67707;-79
2022/07/07 03:37:03;;;;;;;;;4.00;2.75;;;;;18.22;58.89;102132.75;6303012;22;63585;-79
2022/07/07 03:39:29;;;;;;;;;2.00;2.00;;;;;18.22;59.11;102128.34;6303838;22;45299;-79
2022/07/07 03:41:54;;;;;;;;;2.25;2.25;;;;;18.23;58.80;102119.50;6303171;22;71877;-78
2022/07/07 03:44:19;;;;;;;;;5.00;3.00;;;;;18.23;59.71;102122.16;6303713;22;51582;-78
2022/07/07 03:46:45;;;;;;;;;3.25;3.00;;;;;18.26;58.71;102121.19;6302977;22;68348;-79
2022/07/07 03:49:10;;;;;;;;;5.00;3.00;;;;;18.28;59.19;102122.84;6303065;22;69354;-79
2022/07/07 03:51:36;;;;;;;;;3.50;3.00;;;;;18.26;59.20;102122.03;6303592;22;47994;-78
2022/07/07 03:54:02;;;;;;;;;4.25;2.00;;;;;18.23;59.31;102118.66;6304211;22;45201;-79
2022/07/07 03:56:27;;;;;;;;;2.00;2.00;;;;;18.13;59.81;102105.84;6304240;22;45494;-79
2022/07/07 03:58:52;;;;;;;;;3.00;2.00;;;;;18.05;59.71;102105.28;6302528;22;65662;-78
2022/07/07 04:01:18;;;;;;;;;4.25;2.25;;;;;18.04;60.15;102118.53;6302667;22;64843;-78
2022/07/07 04:03:43;;;;;;;;;4.50;2.25;;;;;18.01;60.17;102111.59;6303395;22;45254;-78
2022/07/07 04:06:08;;;;;;;;;4.75;3.00;;;;;17.95;60.28;102109.19;6304613;22;67412;-79
2022/07/07 04:08:34;;;;;;;;;3.00;3.00;;;;;17.90;60.18;102114.63;6304825;22;62301;-78
2022/07/07 04:10:59;;;;;;;;;3.00;2.75;;;;;17.98;60.86;102122.25;6304579;22;62667;-79
2022/07/07 04:13:24;;;;;;;;;3.25;3.00;;;;;18.01;60.68;102126.53;6304310;22;60822;-79
2022/07/07 04:15:50;;;;;;;;;3.00;3.00;;;;;18.01;60.24;102113.38;6305735;22;45180;-79
2022/07/07 04:18:15;;;;;;;;;3.00;3.00;;;;;18.02;60.43;102112.47;6304758;22;45260;-79
2022/07/07 04:20:40;;;;;;;;;4.25;3.00;;;;;18.06;60.91;102117.53;6304099;22;64914;-79
2022/07/07 04:23:06;;;;;;;;;3.25;3.00;;;;;18.04;60.40;102118.53;6303959;22;73263;-78
2022/07/07 04:25:31;;;;;;;;;3.00;3.00;;;;;18.03;60.96;102115.00;6303949;22;67576;-78
2022/07/07 04:27:56;;;;;;;;;3.50;3.00;;;;;17.98;60.84;102107.31;6303947;22;68268;-78
2022/07/07 04:30:22;;;;;;;;;4.50;3.25;;;;;18.04;59.90;102115.91;6304283;22;70781;-78
2022/07/07 04:32:47;;;;;;;;;3.00;3.00;;;;;18.07;60.37;102115.75;6305095;22;45197;-79
2022/07/07 04:35:13;;;;;;;;;3.25;3.00;;;;;18.03;60.74;102111.53;6305635;22;45176;-78
2022/07/07 04:37:38;;;;;;;;;3.75;3.25;;;;;18.06;60.97;102114.91;6304183;22;66754;-78
2022/07/07 04:40:04;;;;;;;;;5.50;2.75;;;;;18.12;60.53;102114.66;6303870;22;74606;-79
2022/07/07 04:42:29;;;;;;;;;4.00;2.75;;;;;18.17;61.05;102125.03;6304581;22;45278;-78
2022/07/07 04:44:55;;;;;;;;;3.00;3.00;;;;;18.19;60.49;102131.94;6278047;22;45262;-78
2022/07/07 04:47:21;;;;;;;;;3.00;2.00;;;;;18.27;60.66;102133.44;6277409;22;45350;-78
2022/07/07 04:49:46;;;;;;;;;4.75;3.00;;;;;18.31;60.43;102142.94;6304777;22;45568;-79
2022/07/07 04:52:11;;;;;;;;;3.75;3.00;;;;;18.34;60.48;102141.03;6304320;22;67272;-78
2022/07/07 04:54:37;;;;;;;;;4.00;4.00;;;;;18.40;60.11;102147.84;6304316;22;66506;-78
2022/07/07 04:57:02;;;;;;;;;4.50;2.25;;;;;18.43;60.41;102144.25;6303964;22;69598;-79
2022/07/07 04:59:27;;;;;;;;;2.00;2.00;;;;;18.49;60.44;102151.91;6304735;22;47482;-79
2022/07/07 05:01:53;;;;;;;;;4.25;2.75;;;;;18.45;60.13;102143.25;6303628;22;72992;-78
2022/07/07 05:04:18;;;;;;;;;3.75;3.00;;;;;18.48;60.15;102148.41;6304333;22;67081;-79
2022/07/07 05:06:43;;;;;;;;;4.50;4.00;;;;;18.55;60.39;102156.91;6303770;22;68199;-78
2022/07/07 05:09:09;;;;;;;;;6.75;3.75;;;;;18.54;60.31;102150.78;6303950;22;75414;-79
2022/07/07 05:11:35;;;;;;;;;5.50;3.00;;;;;18.59;60.21;102158.53;6304694;22;45343;-78
2022/07/07 05:14:01;;;;;;;;;3.00;3.00;;;;;18.66;60.33;102156.50;6305443;22;45301;-78
2022/07/07 05:16:26;;;;;;;;;6.25;3.75;;;;;18.70;59.96;102150.16;6304240;22;45456;-79
2022/07/07 05:18:51;;;;;;;;;2.50;2.50;;;;;18.74;60.51;102150.00;6304023;22;72246;-79
2022/07/07 05:21:17;;;;;;;;;5.75;3.50;;;;;18.82;60.23;102159.41;6303573;22;70652;-78
2022/07/07 05:23:42;;;;;;;;;3.00;2.75;;;;;18.86;59.61;102151.28;6304774;22;45242;-79
2022/07/07 05:26:08;;;;;;;;;4.50;3.75;;;;;18.89;60.51;102156.47;6305412;22;45171;-79
2022/07/07 05:28:36;;;;;;;;;4.25;2.75;;;;;18.93;59.79;102157.19;6304298;22;57921;-79
2022/07/07 05:31:02;;;;;;;;;5.00;3.00;;;;;18.97;60.71;102158.78;6304449;22;45299;-78
2022/07/07 05:33:28;;;;;;;;;4.50;4.00;;;;;18.99;60.04;102156.06;6277564;22;45298;-77
2022/07/07 05:35:53;;;;;;;;;3.50;3.00;;;;;19.02;60.36;102164.72;6304411;22;63090;-77
2022/07/07 05:38:18;;;;;;;;;6.50;3.00;;;;;19.01;59.77;102163.00;6304326;22;63534;-79
2022/07/07 05:40:44;;;;;;;;;3.25;3.25;;;;;19.06;60.49;102166.31;6303394;22;70919;-79
2022/07/07 05:43:09;;;;;;;;;6.50;3.25;;;;;19.10;59.83;102161.75;6304077;22;69734;-80
2022/07/07 05:45:34;;;;;;;;;5.00;3.00;;;;;19.08;60.18;102160.97;6304864;22;45429;-79
2022/07/07 05:48:00;;;;;;;;;4.00;2.00;;;;;19.07;59.81;102164.50;6303724;22;75311;-79
2022/07/07 05:50:25;;;;;;;;;5.00;4.00;;;;;19.07;59.91;102160.09;6304662;22;45180;-79
2022/07/07 05:52:51;;;;;;;;;3.25;3.00;;;;;19.12;59.95;102160.75;6277406;22;45390;-80
2022/07/07 05:55:17;;;;;;;;;5.00;3.00;;;;;19.20;59.98;102167.50;6277430;22;45458;-79
2022/07/07 05:57:42;;;;;;;;;5.00;3.00;;;;;19.26;60.08;102162.81;6304711;22;47214;-79
2022/07/07 06:00:08;;;;;;;;;4.00;4.00;;;;;19.31;60.48;102165.25;6303554;22;71298;-80
2022/07/07 06:02:33;;;;;;;;;3.00;3.00;;;;;19.32;59.80;102169.63;6304667;22;45164;-81
2022/07/07 06:04:58;;;;;;;;;3.25;3.00;;;;;19.31;59.43;102167.88;6304451;22;57144;-79
2022/07/07 06:07:24;;;;;;;;;4.00;3.00;;;;;19.31;60.04;102175.81;6304131;22;48000;-79
2022/07/07 06:09:49;;;;;;;;;4.50;3.00;;;;;19.33;59.81;102181.88;6303513;22;72040;-79
2022/07/07 06:12:14;;;;;;;;;3.50;2.00;;;;;19.31;59.43;102192.50;6303768;22;66996;-79
2022/07/07 06:14:40;;;;;;;;;4.00;2.50;;;;;19.37;59.78;102198.44;6275456;22;67812;-79
2022/07/07 06:17:05;;;;;;;;;4.50;3.00;;;;;19.33;59.34;102188.03;6304268;22;46250;-79
2022/07/07 06:19:31;;;;;;;;;3.00;2.00;;;;;19.39;59.90;102204.53;6303124;22;74038;-79
2022/07/07 06:21:56;;;;;;;;;5.50;3.00;;;;;19.40;59.50;102198.34;6304958;22;45295;-79
2022/07/07 06:24:21;;;;;;;;;3.75;3.75;;;;;19.39;59.43;102200.13;6277462;22;45284;-79
2022/07/07 06:26:47;;;;;;;;;2.75;2.25;;;;;19.44;59.89;102206.03;6304216;22;46205;-79
2022/07/07 06:29:12;;;;;;;;;3.00;3.00;;;;;19.47;60.00;102203.28;6304544;22;45365;-79
2022/07/07 06:31:38;;;;;;;;;3.25;3.00;;;;;19.58;59.82;102215.19;6304985;22;45288;-79
2022/07/07 06:34:03;;;;;;;;;3.50;3.50;;;;;19.63;59.48;102215.81;6304292;22;58032;-80
2022/07/07 06:36:28;;;;;;;;;5.00;3.75;;;;;19.63;59.68;102227.25;6302970;22;70474;-80
2022/07/07 06:38:54;;;;;;;;;4.00;4.00;;;;;19.69;59.86;102226.13;6303307;22;67102;-79
2022/07/07 06:41:23;;;;;;;;;5.75;2.50;;;;;19.66;59.12;102208.59;6305043;22;45299;-80
2022/07/07 06:43:49;;;;;;;;;2.50;2.50;;;;;19.76;59.25;102221.44;6276640;22;45414;-80
2022/07/07 06:46:14;;;;;;;;;3.50;2.75;;;;;19.78;59.62;102216.94;6304725;22;45333;-79
2022/07/07 06:48:39;;;;;;;;;4.50;2.75;;;;;19.82;59.62;102216.75;6303522;22;70920;-79
2022/07/07 06:51:05;;;;;;;;;1.75;1.75;;;;;19.95;59.52;102218.84;6303356;22;64192;-79
2022/07/07 06:53:30;;;;;;;;;5.75;2.00;;;;;20.03;59.08;102222.00;6303540;22;70713;-79
2022/07/07 06:55:55;;;;;;;;;5.75;2.00;;;;;20.15;58.44;102212.66;6303254;22;75743;-80
2022/07/07 06:58:21;;;;;;;;;1.75;1.00;;;;;20.24;58.33;102228.94;6302343;22;72008;-80
2022/07/07 07:00:46;;;;;;;;;4.00;2.75;;;;;20.34;58.08;102217.94;6277255;22;45304;-79
2022/07/07 07:03:11;;;;;;;;;1.75;1.00;;;;;20.48;57.77;102219.00;6303395;22;70464;-79
2022/07/07 07:05:37;;;;;;;;;5.00;2.00;;;;;20.53;57.18;102224.09;6303964;22;46408;-79
2022/07/07 07:08:02;;;;;;;;;4.75;2.00;;;;;20.66;57.81;102229.69;6303807;22;61113;-79
2022/07/07 07:10:27;;;;;;;;;3.00;2.75;;;;;20.78;57.10;102220.28;6303784;22;46919;-78
2022/07/07 07:12:53;;;;;;;;;4.00;2.75;;;;;20.85;56.75;102230.50;6302497;22;67452;-79
2022/07/07 07:15:18;;;;;;;;;3.50;2.25;;;;;20.93;56.25;102226.63;6303266;22;76102;-79
2022/07/07 07:17:43;;;;;;;;;4.25;3.00;;;;;21.03;56.58;102239.34;6302803;22;70422;-79
2022/07/07 07:20:09;;;;;;;;;3.25;3.00;;;;;21.12;56.05;102239.81;6304302;22;45188;-80
2022/07/07 07:22:38;;;;;;;;;2.75;1.00;;;;;21.14;55.96;102243.28;6304141;22;45402;-79
2022/07/07 07:25:05;;;;;;;;;3.00;2.00;;;;;21.19;56.02;102251.81;6304176;22;45374;-79
2022/07/07 07:27:30;;;;;;;;;5.00;2.75;;;;;21.25;55.83;102241.78;6275859;22;45603;-79
2022/07/07 07:29:55;;;;;;;;;3.00;3.00;;;;;21.35;55.85;102251.91;6303531;22;60278;-78
2022/07/07 07:32:20;;;;;;;;;3.00;2.00;;;;;21.41;55.75;102251.59;6304462;22;45289;-80
2022/07/07 07:34:46;;;;;;;;;2.25;2.00;;;;;21.51;55.35;102254.66;6302881;22;75428;-80
2022/07/07 07:37:11;;;;;;;;;1.25;1.25;;;;;21.48;54.71;102260.13;6303159;22;55426;-81
2022/07/07 07:39:36;;;;;;;;;2.00;2.00;;;;;21.45;55.16;102259.34;6305108;22;45604;-81
2022/07/07 07:42:02;;;;;;;;;3.25;2.00;;;;;21.46;54.98;102260.22;6305281;22;45429;-81
2022/07/07 07:47:11;;;;;;;;;3.00;2.00;;;;;21.47;54.83;102261.94;6305537;22;45291;-80
2022/07/07 07:49:36;;;;;;;;;2.50;2.00;;;;;21.46;54.74;102257.56;6276509;22;67613;-81
2022/07/07 07:52:02;;;;;;;;;2.25;2.25;;;;;21.48;55.20;102265.44;6276415;22;70630;-80
2022/07/07 07:54:27;;;;;;;;;2.00;2.00;;;;;21.49;54.70;102261.84;6277440;22;46414;-80
2022/07/07 07:56:52;;;;;;;;;2.25;2.25;;;;;21.52;54.98;102265.19;6304534;22;52609;-80
2022/07/07 07:59:18;;;;;;;;;3.00;1.75;;;;;21.58;54.71;102259.59;6304562;22;68900;-80
2022/07/07 08:01:43;;;;;;;;;5.25;2.25;;;;;21.71;54.69;102272.19;6304326;22;69909;-81
2022/07/07 08:04:08;;;;;;;;;2.50;2.00;;;;;21.91;54.77;102266.69;6304216;22;73722;-80
2022/07/07 08:06:34;;;;;;;;;2.75;1.00;;;;;22.08;53.61;102273.75;6275893;22;45322;-80
2022/07/07 08:08:59;;;;;;;;;3.00;2.00;;;;;22.19;53.28;102268.78;6304323;22;57848;-80
2022/07/07 08:11:24;;;;;;;;;1.00;1.00;;;;;22.40;53.09;102268.56;6303787;22;70869;-81
2022/07/07 08:13:50;;;;;;;;;1.00;1.00;;;;;22.47;52.63;102254.00;6304729;22;47060;-82
2022/07/07 08:16:15;;;;;;;;;1.00;0.00;;;;;22.54;51.70;102258.03;6305114;22;45261;-81
2022/07/07 08:18:40;;;;;;;;;1.75;1.00;;;;;22.49;51.55;102260.09;6303402;22;68283;-80
2022/07/07 08:21:05;;;;;;;;;1.00;1.00;;;;;22.50;51.72;102260.94;6303428;22;68581;-80
2022/07/07 08:23:31;;;;;;;;;1.00;1.00;;;;;22.56;51.48;102258.78;6303921;22;68529;-80
2022/07/07 08:25:56;;;;;;;;;1.25;1.00;;;;;22.63;51.27;102258.47;6276266;22;70028;-80
2022/07/07 08:28:21;;;;;;;;;1.25;1.00;;;;;22.70;50.93;102247.44;6277413;22;45557;-81
2022/07/07 08:30:47;;;;;;;;;0.50;0.50;;;;;22.72;50.89;102239.38;6303805;22;68271;-82
2022/07/07 08:33:12;;;;;;;;;1.00;1.00;;;;;22.71;50.86;102235.00;6304862;22;46099;-80
2022/07/07 08:35:38;;;;;;;;;0.75;0.75;;;;;22.88;50.82;102239.34;6303621;22;73252;-81
2022/07/07 08:38:03;;;;;;;;;0.75;0.50;;;;;23.09;50.95;102250.59;6304604;22;45269;-80
2022/07/07 08:40:28;;;;;;;;;1.75;1.75;;;;;23.12;50.49;102250.38;6304156;22;45520;-82
2022/07/07 08:42:54;;;;;;;;;0.50;0.00;;;;;23.17;49.89;102253.63;6277383;22;46495;-81
2022/07/07 08:45:19;;;;;;;;;1.00;0.25;;;;;23.28;49.89;102264.50;6302596;22;64710;-80
2022/07/07 08:47:45;;;;;;;;;0.00;0.00;;;;;23.44;49.22;102258.25;6301501;22;57932;-79
2022/07/07 08:50:11;;;;;;;;;0.50;0.50;;;;;23.56;48.83;102261.03;6304156;22;45644;-81
2022/07/07 08:52:36;;;;;;;;;0.50;0.00;;;;;23.74;48.44;102252.94;6303093;22;46249;-80
2022/07/07 08:55:02;;;;;;;;;0.75;0.50;;;;;23.89;47.97;102260.00;6275325;22;62515;-80
2022/07/07 08:57:28;;;;;;;;;0.75;0.75;;;;;23.97;47.78;102262.16;6304146;22;45332;-80
2022/07/07 08:59:56;;;;;;;;;1.50;0.00;;;;;24.10;47.49;102268.44;6276313;22;66652;-79
2022/07/07 09:02:22;;;;;;;;;1.50;0.25;;;;;24.23;47.13;102273.00;6304665;22;45348;-80
2022/07/07 09:04:47;;;;;;;;;1.00;1.00;;;;;24.29;47.02;102267.28;6277188;22;45209;-78
2022/07/07 09:07:13;;;;;;;;;1.00;0.50;;;;;24.42;46.66;102275.34;6304179;22;61632;-80
2022/07/07 09:09:40;;;;;;;;;0.50;0.00;;;;;24.52;46.23;102271.19;6304397;22;45221;-80
2022/07/07 09:12:07;;;;;;;;;0.25;0.00;;;;;24.58;46.08;102272.63;6304551;22;45225;-80
2022/07/07 09:14:41;;;;;;;;;0.75;0.75;;;;;24.55;46.49;102273.66;6304397;22;45551;-80
2022/07/07 09:17:15;;;;;;;;;1.00;1.00;;;;;24.50;46.36;102273.06;6277054;22;45450;-81
2022/07/07 09:19:41;;;;;;;;;0.75;0.75;;;;;24.43;46.12;102277.91;6304663;22;45384;-80
2022/07/07 09:22:06;;;;;;;;;1.00;1.00;;;;;24.36;46.35;102284.59;6276743;22;47221;-79
2022/07/07 09:24:31;;;;;;;;;1.00;0.75;;;;;24.28;46.17;102282.41;6276855;22;45411;-80
2022/07/07 09:26:57;;;;;;;;;0.75;0.75;;;;;24.29;46.32;102277.94;6304720;22;45254;-80
2022/07/07 09:29:23;;;;;;;;;1.25;1.00;;;;;24.39;46.23;102281.75;6303165;22;67726;-80
2022/07/07 09:31:59;;;;;;;;;1.00;1.00;;;;;24.46;46.04;102290.16;6304501;22;46305;-80
2022/07/07 09:34:27;;;;;;;;;0.75;0.75;;;;;24.59;46.17;102293.81;6304296;22;45439;-79
2022/07/07 09:39:46;;;;;;;;;1.00;1.00;;;;;24.50;45.48;102307.69;6304313;22;45423;-80
2022/07/07 09:42:28;;;;;;;;;0.00;0.00;;;;;24.27;46.23;102307.28;6304314;22;45339;-80
2022/07/07 09:45:05;;;;;;;;;0.50;0.50;;;;;24.02;46.50;102309.78;6302832;22;45630;-80
2022/07/07 09:47:32;;;;;;;;;1.25;0.75;;;;;23.75;46.72;102314.00;6304223;22;45219;-81
2022/07/07 09:50:00;;;;;;;;;2.50;0.75;;;;;23.55;47.00;102322.25;6304645;22;45259;-82
2022/07/07 09:52:26;;;;;;;;;1.25;0.50;;;;;23.41;47.44;102336.38;6275350;22;46393;-82
2022/07/07 09:54:51;;;;;;;;;1.00;1.00;;;;;23.25;47.38;102338.19;6276360;22;45323;-79
2022/07/07 09:57:17;;;;;;;;;1.75;1.75;;;;;23.13;48.02;102345.06;6303396;22;61140;-80
2022/07/07 09:59:43;;;;;;;;;0.50;0.50;;;;;23.00;48.44;102345.72;6304750;22;45250;-79
2022/07/07 10:02:23;;;;;;;;;0.50;0.50;;;;;22.92;47.96;102347.97;6302982;22;47187;-81
2022/07/07 10:04:52;;;;;;;;;1.00;1.00;;;;;22.85;48.39;102354.56;6275179;22;45662;-79
2022/07/07 10:07:22;;;;;;;;;0.50;0.50;;;;;22.84;48.22;102355.47;6303011;22;45338;-81
2022/07/07 10:09:51;;;;;;;;;1.25;1.00;;;;;22.83;48.11;102364.41;6276583;22;45402;-81
2022/07/07 10:12:21;;;;;;;;;1.00;1.00;;;;;22.89;48.12;102364.06;6275928;22;46441;-81
2022/07/07 10:14:48;;;;;;;;;1.00;1.00;;;;;23.02;48.38;102358.91;6276501;22;45314;-79
2022/07/07 10:17:16;;;;;;;;;1.00;1.00;;;;;23.22;47.94;102365.81;6303946;22;45429;-81
2022/07/07 10:19:43;;;;;;;;;0.50;0.50;;;;;23.27;47.61;102371.72;6276437;22;45349;-79
2022/07/07 10:22:11;;;;;;;;;2.00;0.75;;;;;23.23;47.98;102378.13;6276195;22;45445;-78
2022/07/07 10:24:38;;;;;;;;;3.25;1.00;;;;;23.25;47.73;102378.88;6277542;22;45689;-78
2022/07/07 10:27:04;;;;;;;;;2.75;1.75;;;;;23.28;47.73;102367.25;6277227;22;45331;-81
2022/07/07 10:29:49;;;;;;;;;0.50;0.50;;;;;23.44;47.78;102372.53;6304544;22;45451;-80
2022/07/07 10:32:17;;;;;;;;;1.50;0.50;;;;;23.64;47.62;102376.69;6304369;22;45436;-79
2022/07/07 10:34:55;;;;;;;;;1.00;1.00;;;;;23.91;47.42;102380.41;6304529;22;45599;-80
2022/07/07 10:37:21;;;;;;;;;2.50;0.50;;;;;24.20;46.80;102380.47;6276465;22;45298;-81
2022/07/07 10:39:49;;;;;;;;;0.75;0.75;;;;;24.49;46.32;102380.47;6250604;22;45657;-79
2022/07/07 10:42:17;;;;;;;;;0.75;0.75;;;;;24.71;45.44;102385.34;6303858;22;46281;-79
2022/07/07 10:44:48;;;;;;;;;1.75;1.75;;;;;24.68;45.39;102390.88;6303514;22;45339;-79
2022/07/07 10:47:17;;;;;;;;;2.00;1.00;;;;;24.60;45.15;102401.16;6303990;22;45235;-79
2022/07/07 10:49:46;;;;;;;;;1.50;0.75;;;;;24.45;45.28;102392.28;6303957;22;45359;-79
2022/07/07 10:52:25;;;;;;;;;2.00;2.00;;;;;24.34;45.62;102388.44;6275982;22;47116;-80
2022/07/07 10:54:53;;;;;;;;;1.75;1.75;;;;;24.25;45.88;102389.00;6276412;22;45478;-80
2022/07/07 10:57:24;;;;;;;;;2.75;2.00;;;;;24.21;45.81;102391.97;6301269;22;45334;-80
2022/07/07 11:00:08;;;;;;;;;3.00;1.25;;;;;24.12;45.67;102391.56;6303525;22;45444;-80
2022/07/07 11:02:48;;;;;;;;;1.75;1.75;;;;;24.14;45.83;102392.34;6303063;22;46378;-80
2022/07/07 11:05:13;;;;;;;;;2.00;2.00;;;;;24.38;45.33;102389.13;6276231;22;45374;-80
2022/07/07 11:07:58;;;;;;;;;1.75;1.00;;;;;24.57;45.10;102394.19;6304289;22;45290;-80
2022/07/07 11:10:43;;;;;;;;;1.50;1.50;;;;;24.66;45.28;102390.09;6304285;22;45378;-80
2022/07/07 11:13:23;;;;;;;;;5.00;2.00;;;;;24.64;45.63;102397.34;6302564;22;46676;-80
2022/07/07 11:16:09;;;;;;;;;3.00;2.00;;;;;24.51;45.66;102400.72;6277703;22;45222;-80
2022/07/07 11:18:35;;;;;;;;;1.75;1.75;;;;;24.34;45.37;102395.59;6275973;22;45466;-80
2022/07/07 11:21:03;;;;;;;;;1.00;1.00;;;;;24.21;45.35;102399.94;6304943;22;45373;-80
2022/07/07 11:24:02;;;;;;;;;6.00;4.00;;;;;24.22;45.70;102409.63;6276878;22;47106;-79
2022/07/07 11:26:28;;;;;;;;;2.50;2.50;;;;;24.32;45.66;102406.31;6209895;22;45224;-80